Latest Weather Observations for Williamtown

IDN60801

Issued at 7:32 pm EDT Wednesday 7 December 2016 (issued every 30 minutes, with the page automatically refreshed every 10 minutes)

About weather observations | Map of weather stations | Latest weather observations for NSW | Other Formats
Station Details ID: 061078 Name: WILLIAMTOWN RAAF Lat: -32.79 Lon: 151.84 Height: 7.5 m
Data from the previous 72 hours. | See also: Recent months at Williamtown
Date/Time
EDT
Temp
°C
App
Temp
°C
Dew
Point
°C
Rel
Hum
%
Delta-T
°C
Wind Press
QNH
hPa
Press
MSL
hPa
Rain since
9am
mm
Dir  Spd
km/h
Gust
km/h
Spd
kts
Gust
kts
07/07:00pm 22.0 20.3 16.3 70 3.4 ENE 20 28 11 15 1014.3 1014.2 0.0
07/06:30pm 22.7 21.3 16.5 68 3.8 ENE 19 28 10 15 1014.1 1014.0 0.0
07/06:00pm 22.7 20.4 16.7 69 3.7 ENE 24 30 13 16 1013.8 1013.7 0.0
07/05:30pm 22.6 21.2 16.9 70 3.5 ENE 20 30 11 16 1013.8 1013.7 0.0
07/05:00pm 22.9 22.2 17.4 71 3.4 E 17 24 9 13 1014.0 1013.9 0.0
07/04:30pm 22.8 22.6 17.5 72 3.3 ENE 15 20 8 11 1014.3 1014.2 0.0
07/04:00pm 23.1 21.4 16.2 65 4.2 E 20 28 11 15 1014.3 1014.2 0.0
07/03:30pm 23.6 22.7 16.9 66 4.1 E 17 28 9 15 1014.4 1014.3 0.0
07/03:00pm 23.1 22.5 17.6 71 3.4 E 17 26 9 14 1014.8 1014.7 0.0
07/02:30pm 23.2 22.1 17.4 70 3.6 E 19 32 10 17 1014.8 1014.7 0.0
07/02:00pm 22.9 21.7 17.4 71 3.4 SE 20 30 11 16 1015.0 1014.9 0.0
07/01:30pm 22.4 21.4 17.5 74 3.0 ESE 19 26 10 14 1015.2 1015.1 0.0
07/01:00pm 22.1 20.1 17.5 75 2.8 ESE 24 32 13 17 1015.3 1015.2 0.0
07/12:30pm 22.6 21.4 17.5 73 3.2 ESE 20 30 11 16 1015.3 1015.2 0.0
07/12:00pm 22.5 21.3 17.6 74 3.0 SE 20 28 11 15 1015.6 1015.5 0.0
07/11:30am 22.8 22.6 16.8 69 3.7 SE 13 19 7 10 1015.3 1015.2 0.0
07/11:00am 22.8 23.0 17.7 73 3.2 S 13 19 7 10 1015.3 1015.2 0.0
07/10:30am 21.5 23.3 17.5 78 2.5 WSW 4 11 2 6 1015.3 1015.2 0.0
07/10:00am 21.4 22.9 18.8 85 1.6 WSW 9 13 5 7 1015.4 1015.3 0.0
07/09:30am 21.2 22.5 18.4 84 1.7 WSW 9 15 5 8 1015.3 1015.2 0.0
07/09:00am 20.6 21.9 18.4 87 1.4 WSW 9 13 5 7 1015.0 1014.9 17.8
07/08:30am 20.2 21.0 18.1 88 1.3 WSW 11 15 6 8 1014.9 1014.8 17.8
07/08:00am 19.4 20.2 17.2 87 1.3 WSW 9 11 5 6 1014.4 1014.3 17.8
07/07:30am 19.1 20.1 16.9 87 1.3 WSW 7 11 4 6 1014.0 1013.9 17.8
07/07:00am 18.9 19.2 17.0 89 1.1 SSW 11 13 6 7 1013.9 1013.8 17.8
07/06:30am 18.8 19.7 17.5 92 0.8 SSW 9 13 5 7 1013.6 1013.5 17.8
07/06:00am 18.5 19.3 17.3 93 0.7 SSW 9 13 5 7 1013.4 1013.3 17.6
07/05:30am 18.2 17.9 16.5 90 1.0 S 13 15 7 8 1013.2 1013.1 17.6
07/05:15am 18.5 18.0 17.0 91 0.9 S 15 20 8 11 1013.2 1013.1 17.6
07/05:00am 19.0 19.8 18.2 95 0.5 SSW 11 19 6 10 1013.2 1013.1 17.6
07/04:51am 19.0 20.6 18.3 96 0.4 SSE 7 11 4 6 1013.1 1013.0 17.6
07/04:31am 18.9 20.1 18.2 96 0.4 S 9 13 5 7 1012.8 1012.7 17.6
07/04:30am 18.9 20.1 18.2 96 0.4 S 9 13 5 7 1012.8 1012.7 17.6
07/04:20am 19.0 19.9 18.3 96 0.4 SSW 11 15 6 8 1013.0 1012.9 17.6
07/04:08am 19.2 20.9 18.5 96 0.4 S 7 11 4 6 1013.0 1012.9 17.4
07/04:00am 19.0 20.2 18.2 95 0.5 S 9 13 5 7 1012.9 1012.8 17.2
07/03:44am 19.0 19.6 17.8 93 0.7 SSW 11 13 6 7 1013.1 1013.0 15.4
07/03:30am 19.4 19.7 18.7 96 0.4 SSW 15 19 8 10 1012.9 1012.8 14.0
07/03:00am 19.6 20.8 19.1 97 0.3 W 11 13 6 7 1012.9 1012.8 12.8
07/02:30am 20.0 21.0 19.5 97 0.3 WNW 13 15 7 8 1012.5 1012.4 11.8
07/02:00am 19.9 21.2 19.4 97 0.3 N 11 15 6 8 1012.1 1012.0 11.8
07/01:30am 19.8 21.4 19.1 96 0.4 N 9 11 5 6 1012.4 1012.3 11.6
07/01:00am 19.9 21.6 19.4 97 0.3 NNW 9 13 5 7 1012.5 1012.4 11.2
07/12:43am 19.8 21.1 19.3 97 0.3 N 11 13 6 7 1012.4 1012.3 11.0
07/12:30am 19.9 21.6 19.4 97 0.3 N 9 11 5 6 1012.6 1012.5 10.8
07/12:23am 19.9 21.6 19.4 97 0.3 N 9 13 5 7 1012.6 1012.5 10.2
07/12:14am 20.0 21.7 19.3 96 0.4 NNW 9 9 5 5 1012.8 1012.7 9.2
07/12:00am 20.1 21.8 19.4 96 0.4 NNW 9 13 5 7 1012.9 1012.8 9.0
 
Date/Time
EDT
Temp
°C
App
Temp
°C
Dew
Point
°C
Rel
Hum
%
Delta-T
°C
Wind Press
QNH
hPa
Press
MSL
hPa
Rain since
9am
mm
Dir  Spd
km/h
Gust
km/h
Spd
kts
Gust
kts
06/11:30pm 20.2 21.6 19.5 96 0.4 NNW 11 15 6 8 1013.2 1013.1 8.0
06/11:21pm 20.3 21.4 19.6 96 0.4 NNW 13 17 7 9 1013.3 1013.2 7.6
06/11:00pm 20.5 21.7 19.8 96 0.4 WNW 13 17 7 9 1013.0 1012.9 6.6
06/10:43pm 20.9 23.2 19.9 94 0.6 WNW 7 11 4 6 1012.7 1012.6 3.4
06/10:30pm 21.0 22.6 20.0 94 0.6 NW 11 15 6 8 1012.5 1012.4 2.6
06/10:00pm 21.2 22.5 20.2 94 0.6 NW 13 17 7 9 1012.3 1012.2 2.0
06/09:30pm 21.0 22.2 20.0 94 0.6 NNW 13 15 7 8 1011.9 1011.8 2.0
06/09:00pm 21.3 22.0 20.5 95 0.5 NW 17 24 9 13 1012.0 1011.9 1.8
06/08:30pm 21.5 23.4 20.5 94 0.6 WSW 11 13 6 7 1011.6 1011.5 1.0
06/08:00pm 21.8 24.4 20.4 92 0.9 WSW 7 9 4 5 1010.9 1010.8 1.0
06/07:30pm 21.9 24.5 20.4 91 1.0 SSW 7 15 4 8 1010.5 1010.4 1.0
06/07:00pm 21.8 24.2 20.1 90 1.1 SSE 7 11 4 6 1010.5 1010.4 1.0
06/06:48pm 22.0 23.8 20.3 90 1.1 SSW 11 17 6 9 1011.1 1011.0 0.8
06/06:30pm 22.3 23.2 20.0 87 1.5 SSE 15 19 8 10 1010.7 1010.6 0.2
06/06:00pm 22.1 22.4 20.4 90 1.1 SSE 19 28 10 15 1010.3 1010.2 0.2
06/05:52pm 22.2 22.4 20.5 90 1.1 S 20 28 11 15 1010.4 1010.3 0.2
06/05:30pm 22.3 22.3 20.2 88 1.4 S 20 28 11 15 1010.2 1010.1 0.2
06/05:20pm 22.4 22.7 20.3 88 1.4 SSE 19 26 10 14 1010.3 1010.2 0.2
06/05:00pm 22.4 21.4 20.5 89 1.2 SSE 26 33 14 18 1010.1 1010.0 0.2
06/04:30pm 22.7 22.1 20.4 87 1.5 S 24 32 13 17 1010.2 1010.1 0.2
06/04:00pm 22.7 22.0 20.2 86 1.6 S 24 30 13 16 1010.2 1010.1 0.2
06/03:30pm 22.9 21.3 20.1 84 1.8 S 28 35 15 19 1010.0 1009.9 0.2
06/03:00pm 23.6 23.1 19.9 80 2.4 SSE 22 28 12 15 1009.9 1009.8 0.2
06/02:30pm 24.3 24.4 20.0 77 2.8 SSE 19 24 10 13 1009.9 1009.8 0.2
06/02:00pm 25.0 25.0 19.8 73 3.4 S 19 26 10 14 1010.2 1010.1 0.2
06/01:30pm 25.9 26.0 20.0 70 3.8 S 19 24 10 13 1010.4 1010.3 0.2
06/01:00pm 25.2 25.3 20.0 73 3.4 SSE 19 20 10 11 1010.7 1010.6 0.0
06/12:30pm 24.4 25.2 19.9 76 2.9 SSE 15 20 8 11 1010.9 1010.8 0.0
06/12:21pm 24.8 26.1 20.1 75 3.0 S 13 20 7 11 1011.0 1010.9 0.0
06/12:00pm 24.1 25.3 19.8 77 2.8 SSW 13 17 7 9 1011.2 1011.1 0.0
06/11:30am 23.7 25.2 19.8 79 2.5 S 11 15 6 8 1011.2 1011.1 0.0
06/11:00am 23.8 25.0 19.9 79 2.5 SSW 13 17 7 9 1011.7 1011.6 0.0
06/10:30am 23.6 24.8 19.9 80 2.4 SSW 13 19 7 10 1011.3 1011.2 0.0
06/10:00am 23.6 24.1 20.1 81 2.3 SSW 17 20 9 11 1011.4 1011.3 0.0
06/09:30am 22.8 23.2 19.8 83 1.9 SW 17 20 9 11 1011.4 1011.3 0.0
06/09:00am 22.4 23.3 20.1 87 1.5 SW 15 19 8 10 1011.3 1011.2 1.8
06/08:30am 21.8 22.7 20.1 90 1.1 WSW 15 19 8 10 1011.5 1011.4 1.8
06/08:00am 21.3 22.2 20.1 93 0.8 WSW 15 20 8 11 1011.3 1011.2 1.8
06/07:30am 21.3 23.8 20.3 94 0.6 SW 7 9 4 5 1011.2 1011.1 1.8
06/07:00am 21.3 22.7 20.3 94 0.6 SSW 13 17 7 9 1011.2 1011.1 1.8
06/06:30am 21.6 22.5 20.1 91 1.0 SSW 15 20 8 11 1010.8 1010.7 1.8
06/06:00am 21.7 23.0 20.2 91 1.0 SSW 13 17 7 9 1010.4 1010.3 1.8
06/05:30am 21.8 22.9 20.4 92 0.9 SSW 15 20 8 11 1010.3 1010.2 1.8
06/05:00am 21.8 22.1 20.4 92 0.9 SSW 19 28 10 15 1010.3 1010.2 1.8
06/04:30am 21.9 22.2 20.7 93 0.8 SSW 20 32 11 17 1010.4 1010.3 1.8
06/04:00am 21.6 21.8 20.6 94 0.6 SSW 20 30 11 16 1010.3 1010.2 1.8
06/03:30am 21.5 21.3 20.5 94 0.6 SSW 22 33 12 18 1010.4 1010.3 1.8
06/03:00am 21.6 21.8 20.2 92 0.9 S 19 28 10 15 1010.0 1009.9 1.8
06/02:30am 21.6 21.6 20.1 91 1.0 S 20 30 11 16 1010.7 1010.6 1.8
06/02:01am 21.6 21.2 20.1 91 1.0 SSW 22 33 12 18 1011.3 1011.2 1.8
06/02:00am 21.6 20.8 20.1 91 1.0 SSW 24 33 13 18 1011.3 1011.2 1.8
06/01:37am 21.8 20.8 20.4 92 0.9 S 26 35 14 19 1011.6 1011.5 1.8
06/01:30am 21.8 20.7 20.3 91 1.0 S 26 35 14 19 1011.8 1011.7 1.8
06/01:22am 22.0 20.6 20.5 91 1.0 S 28 37 15 20 1011.8 1011.7 1.8
06/01:08am 22.2 20.2 20.7 91 1.0 S 32 46 17 25 1012.1 1012.0 1.8
06/01:00am 22.4 20.8 20.7 90 1.1 S 30 39 16 21 1012.1 1012.0 1.8
06/12:30am 23.6 22.0 20.1 81 2.3 SSW 28 39 15 21 1012.1 1012.0 1.8
06/12:23am 23.1 23.4 20.4 85 1.7 SW 19 37 10 20 1012.1 1012.0 1.8
06/12:00am 23.4 27.1 20.0 81 2.2 CALM 0 0 0 0 1011.0 1010.9 1.8
 
Date/Time
EDT
Temp
°C
App
Temp
°C
Dew
Point
°C
Rel
Hum
%
Delta-T
°C
Wind Press
QNH
hPa
Press
MSL
hPa
Rain since
9am
mm
Dir  Spd
km/h
Gust
km/h
Spd
kts
Gust
kts
05/11:30pm 23.2 24.1 20.0 82 2.1 N 15 20 8 11 1010.6 1010.5 1.8
05/11:00pm 22.9 24.3 20.4 86 1.6 N 13 17 7 9 1010.7 1010.6 1.8
05/10:30pm 23.0 24.0 20.3 85 1.7 N 15 19 8 10 1010.6 1010.5 1.8
05/10:00pm 23.5 23.8 20.4 83 2.0 NNE 19 26 10 14 1010.8 1010.7 1.8
05/09:30pm 23.1 23.7 20.2 84 1.9 NE 17 26 9 14 1010.6 1010.5 1.8
05/09:00pm 23.2 23.1 20.0 82 2.1 NE 20 33 11 18 1010.4 1010.3 1.8
05/08:30pm 23.3 22.9 20.1 82 2.1 NE 22 32 12 17 1010.6 1010.5 1.8
05/08:00pm 24.7 25.3 19.5 73 3.3 N 15 20 8 11 1011.4 1011.3 1.8
05/07:30pm 24.6 24.8 19.4 73 3.3 ENE 17 22 9 12 1009.6 1009.5 1.8
05/07:00pm 24.4 23.6 20.1 77 2.8 SE 24 32 13 17 1009.5 1009.4 1.8
05/06:30pm 24.9 23.0 20.2 75 3.1 SSE 30 44 16 24 1009.1 1009.0 1.8
05/06:00pm 25.2 21.8 20.7 76 3.0 SSE 39 78 21 42 1008.3 1008.3 1.8
05/05:50pm 26.0 25.5 20.8 73 3.4 SW 24 83 13 45 1007.6 1007.6 1.8
05/05:42pm 27.6 30.5 23.2 77 3.0 NNE 13 19 7 10 1006.1 1006.1 1.8
05/05:30pm 27.7 30.2 23.1 76 3.1 NNE 15 20 8 11 1005.8 1005.8 1.8
05/05:17pm 27.7 29.3 22.2 72 3.7 SE 17 24 9 13 1006.1 1006.1 1.8
05/05:00pm 27.3 29.7 22.9 77 3.0 NE 15 22 8 12 1005.7 1005.7 1.8
05/04:38pm 28.9 30.8 21.4 64 5.0 NNE 13 26 7 14 1006.7 1006.7 0.4
05/04:30pm 28.1 30.4 22.1 70 4.0 ENE 13 24 7 13 1006.0 1006.0 0.4
05/04:00pm 28.4 30.8 22.2 69 4.2 NE 13 17 7 9 1006.1 1006.1 0.4
05/03:30pm 29.1 32.0 21.8 64 4.9 E 9 19 5 10 1006.1 1006.1 0.4
05/03:10pm 30.6 30.9 19.6 51 7.2 E 17 26 9 14 1005.5 1005.5 0.0
05/03:00pm 31.5 31.9 19.8 49 7.7 E 17 24 9 13 1005.4 1005.4 0.0
05/02:30pm 33.0 33.5 21.2 50 8.0 ESE 20 26 11 14 1005.6 1005.6 0.0
05/02:00pm 33.9 35.4 21.3 47 8.5 ESE 15 22 8 12 1006.5 1006.5 0.0
05/01:30pm 33.4 34.3 20.9 48 8.4 SE 17 26 9 14 1006.9 1006.9 0.0
05/01:00pm 33.8 35.2 19.5 43 9.5 ENE 11 15 6 8 1006.9 1006.9 0.0
05/12:30pm 32.0 34.8 20.9 52 7.4 WSW 7 13 4 7 1007.6 1007.6 0.0
05/12:00pm 30.3 33.1 20.5 55 6.5 WSW 6 11 3 6 1008.0 1008.0 0.0
05/11:30am 29.9 32.6 20.7 57 6.1 W 7 11 4 6 1008.3 1008.3 0.0
05/11:00am 27.9 30.1 20.5 64 4.9 NNW 9 13 5 7 1008.9 1008.8 0.0
05/10:30am 27.5 29.4 20.6 66 4.5 N 11 19 6 10 1009.1 1009.0 0.0
05/10:00am 26.1 28.5 20.9 73 3.4 WNW 9 13 5 7 1009.5 1009.4 0.0
05/09:30am 24.4 27.2 20.9 81 2.3 NW 7 11 4 6 1009.8 1009.7 0.0
05/09:00am 23.4 25.2 21.1 87 1.5 NNE 13 17 7 9 1009.2 1009.1 0.0
05/08:30am 23.2 25.4 21.1 88 1.4 SSE 11 15 6 8 1010.3 1010.2 0.0
05/08:00am 22.9 23.9 21.0 89 1.2 S 17 22 9 12 1011.0 1010.9 0.0
05/07:30am 22.7 21.9 20.8 89 1.2 S 26 33 14 18 1010.4 1010.3 0.0
05/07:00am 23.0 22.6 20.9 88 1.4 S 24 30 13 16 1010.7 1010.6 0.0
05/06:30am 21.7 23.4 19.4 87 1.5 WSW 9 13 5 7 1010.0 1009.9 0.0
05/06:00am 21.9 22.6 18.9 83 1.9 W 13 19 7 10 1009.1 1009.0 0.0
05/05:30am 22.3 24.8 18.1 77 2.6 NNW 2 7 1 4 1007.8 1007.8 0.0
05/05:00am 23.0 24.2 18.3 75 3.0 NNE 9 13 5 7 1007.3 1007.3 0.0
05/04:30am 22.9 24.1 19.1 79 2.4 ENE 11 13 6 7 1007.3 1007.3 0.0
05/04:00am 22.9 24.2 19.3 80 2.3 NE 11 15 6 8 1007.2 1007.2 0.0
05/03:30am 22.9 24.2 19.3 80 2.3 NNE 11 15 6 8 1007.5 1007.5 0.0
05/03:00am 23.1 24.4 19.3 79 2.4 NE 11 15 6 8 1007.6 1007.6 0.0
05/02:30am 23.0 24.2 19.8 82 2.1 NE 13 17 7 9 1008.2 1008.2 0.0
05/02:00am 23.0 24.5 19.8 82 2.1 NE 11 17 6 9 1008.9 1008.8 0.0
05/01:30am 23.1 25.0 19.7 81 2.2 NE 9 13 5 7 1009.5 1009.4 0.0
05/01:00am 23.0 24.5 19.8 82 2.1 NE 11 15 6 8 1010.0 1009.9 0.0
05/12:30am 22.9 24.7 19.5 81 2.2 ENE 9 13 5 7 1010.5 1010.4 0.0
05/12:00am 22.9 24.6 19.3 80 2.3 ENE 9 13 5 7 1011.0 1010.9 0.0
 
Date/Time
EDT
Temp
°C
App
Temp
°C
Dew
Point
°C
Rel
Hum
%
Delta-T
°C
Wind Press
QNH
hPa
Press
MSL
hPa
Rain since
9am
mm
Dir  Spd
km/h
Gust
km/h
Spd
kts
Gust
kts
04/11:30pm 23.1 24.8 19.3 79 2.4 NE 9 13 5 7 1011.5 1011.4 0.0
04/11:00pm 23.1 24.4 19.3 79 2.4 NE 11 15 6 8 1011.6 1011.5 0.0
04/10:30pm 22.9 24.3 19.5 81 2.2 ENE 11 15 6 8 1011.9 1011.8 0.0
04/10:00pm 22.8 23.9 19.6 82 2.0 ENE 13 19 7 10 1012.0 1011.9 0.0
04/09:30pm 23.0 24.2 19.8 82 2.1 ENE 13 17 7 9 1012.0 1011.9 0.0
04/09:00pm 23.0 23.5 20.0 83 1.9 ENE 17 22 9 12 1012.0 1011.9 0.0
04/08:30pm 23.3 23.2 19.9 81 2.2 ENE 20 28 11 15 1011.9 1011.8 0.0
04/08:00pm 23.5 23.3 19.8 80 2.4 ENE 20 30 11 16 1011.9 1011.8 0.0

Other Formats:

Comma delimited format used in spreadsheet applications
http://www.bom.gov.au/fwo/IDN60801/IDN60801.94776.axf

JavaScript Object Notation format (JSON) in row-major order
http://www.bom.gov.au/fwo/IDN60801/IDN60801.94776.json